Glenn, California
Current Conditions -  °F | °C
As of 9:50 AM on Thursday 30 Oct 2014 (Local Time) from KCIC Reporting Station
Broken Clouds Broken Clouds  
Wind Chill: 59°   Ceiling: 25000
Heat Index: 59°   Visibility: 40mi
Dew Point: 48°   Wind: 5mph
Humidity: 67%   Direction: 120°ESE
Pressure: 29.97"   Gusts: NA
Location:  39.52°N, 122.02°W
Report Text: KCIC 301650Z 12004KT 40SM FEW080 SCT150 BKN250 15/09 A2997
Loading
Personal Weather Stations






























Interactive Weather Map
Tropical Storm Tracking
New forecast layout! Learn more

10-Day Weather Forecast

Advertisements
Track Severe Weather on mobile